createdAt,value
2023-02-11T00:00:14.537Z,89.21
2023-02-11T00:01:22.937Z,89.43
2023-02-11T00:02:27.926Z,91.93
2023-02-11T00:03:29.685Z,91.23
2023-02-11T00:04:31.964Z,89.57
2023-02-11T00:05:34.353Z,90.11
2023-02-11T00:06:36.483Z,90.40
2023-02-11T00:07:38.556Z,90.08
2023-02-11T00:08:40.391Z,89.29
2023-02-11T00:09:42.090Z,89.81
2023-02-11T00:10:46.496Z,88.34
2023-02-11T00:11:48.239Z,88.48
2023-02-11T00:12:49.974Z,90.42
2023-02-11T00:13:52.276Z,91.92
2023-02-11T00:14:53.940Z,93.23
2023-02-11T00:15:56.100Z,92.99
2023-02-11T00:16:57.846Z,89.30
2023-02-11T00:17:59.737Z,88.77
2023-02-11T00:19:02.361Z,90.39
2023-02-11T00:20:06.048Z,89.08
2023-02-11T00:21:14.850Z,90.28
2023-02-11T00:22:16.567Z,89.88
2023-02-11T00:23:18.342Z,91.54
2023-02-11T00:24:20.165Z,87.86
2023-02-11T00:25:21.868Z,89.01
2023-02-11T00:26:26.816Z,88.54
2023-02-11T00:27:28.866Z,90.87
2023-02-11T00:28:30.558Z,90.98
2023-02-11T00:29:32.369Z,90.76
2023-02-11T00:30:34.504Z,87.56
2023-02-11T00:31:36.582Z,89.96
2023-02-11T00:32:42.638Z,89.36
2023-02-11T00:33:44.989Z,89.83
2023-02-11T00:34:47.853Z,91.06
2023-02-11T00:35:50.076Z,90.32
2023-02-11T00:36:53.788Z,88.68
2023-02-11T00:37:55.901Z,87.77
2023-02-11T00:38:58.307Z,86.40
2023-02-11T00:39:59.951Z,89.61
2023-02-11T00:41:02.229Z,86.68
2023-02-11T00:42:04.450Z,88.05
2023-02-11T00:43:06.218Z,87.83
2023-02-11T00:44:07.950Z,88.70
2023-02-11T00:45:10.243Z,89.72
2023-02-11T00:46:12.535Z,89.15
2023-02-11T00:47:14.258Z,90.02
2023-02-11T00:48:18.932Z,89.15
2023-02-11T00:49:20.778Z,87.21
2023-02-11T00:50:23.754Z,89.07
2023-02-11T00:51:27.676Z,91.04
2023-02-11T00:52:30.137Z,90.49
2023-02-11T00:53:32.714Z,89.75
2023-02-11T00:54:34.544Z,88.76
2023-02-11T00:55:36.252Z,87.63
2023-02-11T00:56:38.122Z,87.53
2023-02-11T00:57:39.898Z,88.62
2023-02-11T00:58:41.599Z,88.35
2023-02-11T00:59:43.599Z,87.97
2023-02-11T01:00:46.730Z,87.49
2023-02-11T01:01:48.974Z,88.69
2023-02-11T01:02:51.371Z,87.98
2023-02-11T01:03:53.226Z,88.21
2023-02-11T01:04:58.561Z,91.70
2023-02-11T01:06:00.867Z,90.02
2023-02-11T01:07:02.572Z,89.09
2023-02-11T01:08:05.208Z,89.99
2023-02-11T01:09:07.124Z,88.56
2023-02-11T01:10:10.572Z,90.52
2023-02-11T01:11:15.226Z,88.18
2023-02-11T01:12:19.958Z,89.03
2023-02-11T01:13:22.352Z,88.16
2023-02-11T01:14:24.145Z,89.91
2023-02-11T01:15:26.460Z,89.37
2023-02-11T01:16:28.466Z,91.97
2023-02-11T01:17:30.312Z,92.27
2023-02-11T01:18:32.070Z,93.03
2023-02-11T01:19:33.874Z,94.20
2023-02-11T01:20:35.665Z,91.33
2023-02-11T01:21:37.365Z,88.50
2023-02-11T01:22:39.761Z,89.62
2023-02-11T01:23:41.633Z,90.73
2023-02-11T01:24:43.329Z,90.46
2023-02-11T01:25:45.153Z,88.79
2023-02-11T01:26:46.832Z,89.00
2023-02-11T01:27:48.564Z,88.07
2023-02-11T01:28:50.370Z,88.83
2023-02-11T01:29:52.117Z,92.93
2023-02-11T01:31:08.767Z,90.63
2023-02-11T01:32:11.070Z,89.94
2023-02-11T01:33:12.876Z,90.66
2023-02-11T01:34:15.540Z,91.07
2023-02-11T01:35:17.217Z,90.39
2023-02-11T01:36:19.002Z,92.08
2023-02-11T01:37:20.749Z,88.57
2023-02-11T01:38:25.348Z,89.05
2023-02-11T01:39:28.581Z,89.23
2023-02-11T01:40:30.605Z,88.79
2023-02-11T01:41:32.460Z,89.51
2023-02-11T01:42:34.328Z,89.53
2023-02-11T01:43:38.714Z,91.08
2023-02-11T01:44:40.497Z,92.15
2023-02-11T01:45:46.276Z,93.60
2023-02-11T01:46:48.052Z,90.91
2023-02-11T01:47:49.848Z,92.09
2023-02-11T01:49:07.604Z,94.37
2023-02-11T01:50:09.396Z,90.59
2023-02-11T01:51:17.500Z,89.06
2023-02-11T01:52:26.584Z,89.47
2023-02-11T01:53:47.874Z,89.56
2023-02-11T01:55:30.420Z,88.57
2023-02-11T01:56:51.901Z,89.10
2023-02-11T01:57:57.032Z,90.39
2023-02-11T01:59:21.173Z,89.67
2023-02-11T02:00:42.717Z,88.16
2023-02-11T02:01:48.637Z,88.13
2023-02-11T02:03:13.532Z,89.55
2023-02-11T02:04:17.891Z,89.64
2023-02-11T02:05:39.537Z,90.58
2023-02-11T02:06:50.162Z,89.34
2023-02-11T02:08:13.824Z,91.20
2023-02-11T02:09:22.973Z,90.99
2023-02-11T02:10:26.381Z,92.01
2023-02-11T02:11:28.175Z,91.36
2023-02-11T02:12:30.194Z,90.13
2023-02-11T02:13:33.725Z,88.15
2023-02-11T02:14:38.936Z,90.82
2023-02-11T02:15:45.937Z,91.37
2023-02-11T02:16:47.755Z,88.63
2023-02-11T02:17:53.864Z,91.90
2023-02-11T02:19:33.191Z,91.24
2023-02-11T02:20:56.489Z,91.00
2023-02-11T02:22:43.802Z,87.01
2023-02-11T02:24:08.387Z,88.15
2023-02-11T02:25:25.038Z,89.63
2023-02-11T02:26:45.551Z,89.14
2023-02-11T02:27:53.208Z,88.95
2023-02-11T02:29:19.451Z,88.47
2023-02-11T02:30:33.148Z,88.98
2023-02-11T02:32:10.319Z,87.26
2023-02-11T02:33:22.479Z,87.91
2023-02-11T02:34:46.520Z,88.59
2023-02-11T02:35:56.048Z,87.32
2023-02-11T02:37:03.613Z,85.94
2023-02-11T02:38:17.244Z,87.88
2023-02-11T02:39:24.315Z,89.05
2023-02-11T02:40:31.505Z,88.37
2023-02-11T02:41:34.812Z,87.05
2023-02-11T02:42:36.870Z,86.72
2023-02-11T02:43:42.039Z,88.52
2023-02-11T02:44:49.498Z,85.91
2023-02-11T02:45:51.366Z,85.71
2023-02-11T02:46:53.216Z,86.66
2023-02-11T02:47:55.442Z,89.23
2023-02-11T02:48:57.678Z,90.55
2023-02-11T02:49:59.569Z,91.16
2023-02-11T02:51:38.960Z,90.57
2023-02-11T02:53:10.308Z,87.84
2023-02-11T02:54:14.996Z,87.01
2023-02-11T02:55:27.787Z,86.12
2023-02-11T02:56:51.668Z,87.46
2023-02-11T02:57:53.197Z,85.14
2023-02-11T02:59:28.807Z,84.08
2023-02-11T03:00:54.322Z,85.17
2023-02-11T03:02:21.120Z,86.36
2023-02-11T03:03:32.014Z,86.53
2023-02-11T03:05:04.203Z,85.89
2023-02-11T03:06:17.866Z,86.83
2023-02-11T03:07:39.858Z,89.37
2023-02-11T03:08:51.498Z,88.23
2023-02-11T03:10:09.582Z,86.71
2023-02-11T03:11:12.032Z,85.19
2023-02-11T03:12:13.918Z,87.48
2023-02-11T03:13:19.723Z,87.88
2023-02-11T03:14:22.396Z,88.07
2023-02-11T03:15:24.752Z,85.82
2023-02-11T03:16:28.039Z,87.77
2023-02-11T03:17:31.419Z,85.51
2023-02-11T03:18:35.774Z,87.17
2023-02-11T03:19:39.561Z,87.57
2023-02-11T03:20:43.621Z,86.80
2023-02-11T03:21:47.046Z,88.53
2023-02-11T03:22:56.561Z,86.47
2023-02-11T03:24:01.091Z,86.27
2023-02-11T03:25:03.078Z,87.09
2023-02-11T03:26:31.593Z,86.35
2023-02-11T03:27:37.517Z,88.66
2023-02-11T03:28:44.382Z,88.18
2023-02-11T03:29:51.735Z,88.35
2023-02-11T03:31:04.615Z,87.39
2023-02-11T03:32:23.898Z,88.02
2023-02-11T03:33:35.880Z,87.33
2023-02-11T03:34:46.009Z,87.45
2023-02-11T03:35:54.048Z,86.99
2023-02-11T03:37:18.646Z,87.62
2023-02-11T03:38:23.819Z,88.82
2023-02-11T03:39:33.491Z,87.30
2023-02-11T03:40:39.857Z,87.50
2023-02-11T03:41:42.628Z,88.63
2023-02-11T03:42:50.046Z,89.79
2023-02-11T03:43:55.326Z,89.07
2023-02-11T03:45:01.651Z,89.51
2023-02-11T03:46:03.681Z,91.70
2023-02-11T03:47:08.451Z,91.15
2023-02-11T03:48:35.299Z,90.45
2023-02-11T03:49:38.574Z,90.84
2023-02-11T03:50:41.439Z,88.66
2023-02-11T03:51:42.896Z,88.25
2023-02-11T03:52:45.561Z,87.98
2023-02-11T03:53:47.831Z,87.93
2023-02-11T03:54:51.656Z,89.60
2023-02-11T03:55:57.428Z,89.29
2023-02-11T03:57:00.910Z,90.18
2023-02-11T03:58:02.536Z,90.42
2023-02-11T03:59:04.407Z,88.93
2023-02-11T04:00:07.245Z,88.71
2023-02-11T04:01:13.153Z,88.85
2023-02-11T04:02:14.795Z,89.38
2023-02-11T04:03:16.610Z,89.25
2023-02-11T04:04:18.418Z,89.04
2023-02-11T04:05:20.104Z,88.76
2023-02-11T04:06:21.641Z,88.99
2023-02-11T04:07:23.537Z,90.01
2023-02-11T04:08:25.583Z,93.10
2023-02-11T04:09:27.303Z,93.87
2023-02-11T04:10:29.151Z,92.81
2023-02-11T04:11:30.740Z,91.80
2023-02-11T04:12:32.535Z,89.83
2023-02-11T04:13:34.347Z,88.77
2023-02-11T04:14:36.095Z,88.27
2023-02-11T04:15:38.253Z,87.66
2023-02-11T04:16:39.863Z,88.20
2023-02-11T04:17:41.671Z,88.81
2023-02-11T04:18:43.353Z,90.61
2023-02-11T04:19:44.943Z,88.49
2023-02-11T04:20:47.100Z,88.00
2023-02-11T04:21:48.641Z,90.30
2023-02-11T04:22:50.279Z,89.42
2023-02-11T04:23:51.930Z,87.72
2023-02-11T04:24:53.544Z,90.88
2023-02-11T04:25:55.166Z,90.08
2023-02-11T04:26:56.917Z,88.53
2023-02-11T04:27:58.863Z,87.93
2023-02-11T04:29:00.565Z,88.04
2023-02-11T04:30:02.208Z,88.23
2023-02-11T04:31:04.086Z,87.73
2023-02-11T04:32:05.816Z,88.07
2023-02-11T04:33:07.439Z,88.19
2023-02-11T04:34:09.068Z,92.21
2023-02-11T04:35:10.655Z,89.99
2023-02-11T04:36:12.930Z,88.27
2023-02-11T04:37:14.873Z,88.14
2023-02-11T04:38:16.762Z,87.40
2023-02-11T04:39:18.569Z,87.98
2023-02-11T04:40:20.300Z,88.26
2023-02-11T04:41:21.893Z,88.82
2023-02-11T04:42:23.945Z,91.83
2023-02-11T04:43:25.581Z,92.54
2023-02-11T04:44:27.554Z,93.68
2023-02-11T04:45:29.171Z,90.20
2023-02-11T04:46:30.858Z,87.81
2023-02-11T04:47:32.552Z,87.46
2023-02-11T04:48:35.297Z,87.86
2023-02-11T04:49:37.418Z,87.47
2023-02-11T04:50:39.193Z,87.78
2023-02-11T04:51:41.142Z,88.93
2023-02-11T04:52:42.809Z,88.23
2023-02-11T04:53:44.533Z,90.84
2023-02-11T04:54:46.242Z,89.71
2023-02-11T04:55:51.588Z,92.92
2023-02-11T04:56:53.341Z,94.07
2023-02-11T04:57:55.317Z,91.43
2023-02-11T04:58:56.968Z,86.72
2023-02-11T04:59:59.351Z,86.63
2023-02-11T05:01:09.054Z,90.12
2023-02-11T05:02:10.622Z,86.14
2023-02-11T05:03:13.059Z,88.30
2023-02-11T05:04:14.843Z,91.06
2023-02-11T05:05:16.979Z,88.13
2023-02-11T05:06:18.593Z,85.68
2023-02-11T05:07:20.304Z,85.43
2023-02-11T05:08:21.964Z,85.16
2023-02-11T05:09:23.652Z,87.94
2023-02-11T05:10:25.672Z,88.33
2023-02-11T05:11:27.296Z,89.25
2023-02-11T05:12:28.938Z,84.53
2023-02-11T05:13:30.726Z,85.82
2023-02-11T05:14:33.301Z,84.40
2023-02-11T05:15:35.042Z,84.41
2023-02-11T05:16:36.757Z,84.17
2023-02-11T05:17:38.443Z,85.20
2023-02-11T05:18:41.468Z,84.79
2023-02-11T05:19:43.443Z,89.65
2023-02-11T05:20:45.374Z,85.51
2023-02-11T05:22:01.355Z,89.85
2023-02-11T05:23:04.083Z,85.37
2023-02-11T05:24:06.130Z,88.80
2023-02-11T05:25:08.267Z,88.70
2023-02-11T05:26:10.886Z,87.07
2023-02-11T05:27:12.450Z,86.23
2023-02-11T05:28:14.116Z,88.56
2023-02-11T05:29:15.762Z,83.03
2023-02-11T05:30:17.502Z,83.95
2023-02-11T05:31:19.307Z,87.02
2023-02-11T05:32:21.104Z,87.33
2023-02-11T05:33:22.938Z,83.73
2023-02-11T05:34:24.726Z,84.91
2023-02-11T05:35:26.882Z,87.15
2023-02-11T05:36:29.821Z,84.71
2023-02-11T05:37:33.166Z,86.23
2023-02-11T05:38:35.238Z,84.28
2023-02-11T05:39:36.973Z,82.56
2023-02-11T05:40:38.835Z,89.36
2023-02-11T05:41:40.567Z,84.13
2023-02-11T05:42:42.236Z,82.46
2023-02-11T05:43:43.997Z,85.28
2023-02-11T05:44:45.669Z,86.11
2023-02-11T05:45:47.419Z,87.04
2023-02-11T05:46:49.434Z,86.29
2023-02-11T05:47:51.450Z,83.83
2023-02-11T05:48:53.164Z,84.02
2023-02-11T05:49:54.845Z,83.26
2023-02-11T05:50:56.546Z,82.98
2023-02-11T05:51:58.407Z,89.25
2023-02-11T05:53:00.103Z,85.08
2023-02-11T05:54:02.196Z,86.68
2023-02-11T05:55:04.275Z,85.36
2023-02-11T05:56:06.476Z,84.03
2023-02-11T05:57:08.277Z,82.64
2023-02-11T05:58:10.093Z,82.85
2023-02-11T05:59:13.903Z,82.04
2023-02-11T06:00:16.073Z,82.67
2023-02-11T06:01:17.893Z,81.75
2023-02-11T06:02:19.620Z,83.57
2023-02-11T06:03:21.339Z,82.70
2023-02-11T06:04:23.055Z,85.34
2023-02-11T06:05:24.753Z,81.72
2023-02-11T06:06:26.668Z,83.09
2023-02-11T06:07:28.672Z,82.32
2023-02-11T06:08:30.310Z,81.91
2023-02-11T06:09:31.944Z,83.59
2023-02-11T06:10:33.544Z,81.16
2023-02-11T06:11:35.185Z,81.97
2023-02-11T06:12:37.872Z,85.43
2023-02-11T06:13:39.378Z,81.87
2023-02-11T06:14:41.217Z,82.88
2023-02-11T06:15:42.907Z,82.49
2023-02-11T06:16:45.473Z,83.58
2023-02-11T06:17:47.521Z,83.07
2023-02-11T06:18:49.240Z,83.76
2023-02-11T06:19:51.075Z,83.73
2023-02-11T06:20:52.765Z,84.40
2023-02-11T06:21:56.102Z,84.23
2023-02-11T06:22:57.861Z,82.17
2023-02-11T06:23:59.504Z,82.60
2023-02-11T06:25:02.310Z,84.27
2023-02-11T06:26:05.921Z,87.52
2023-02-11T06:27:07.608Z,81.87
2023-02-11T06:28:10.735Z,81.00
2023-02-11T06:29:13.043Z,84.98
2023-02-11T06:30:16.205Z,85.04
2023-02-11T06:31:18.315Z,86.69
2023-02-11T06:32:39.597Z,85.75
2023-02-11T06:33:42.224Z,83.40
2023-02-11T06:34:43.861Z,82.29
2023-02-11T06:35:45.556Z,85.71
2023-02-11T06:36:47.631Z,82.62
2023-02-11T06:37:49.732Z,82.72
2023-02-11T06:38:53.261Z,83.72
2023-02-11T06:39:54.887Z,81.95
2023-02-11T06:40:56.605Z,80.54
2023-02-11T06:41:58.281Z,81.20
2023-02-11T06:43:00.309Z,81.92
2023-02-11T06:44:01.973Z,81.50
2023-02-11T06:45:06.029Z,84.64
2023-02-11T06:46:08.412Z,81.60
2023-02-11T06:47:10.218Z,82.59
2023-02-11T06:48:12.004Z,84.78
2023-02-11T06:49:13.718Z,85.05
2023-02-11T06:50:15.614Z,83.53
2023-02-11T06:51:17.878Z,82.25
2023-02-11T06:52:19.495Z,82.05
2023-02-11T06:53:21.174Z,82.34
2023-02-11T06:54:22.914Z,84.36
2023-02-11T06:55:24.604Z,87.70
2023-02-11T06:56:27.479Z,82.22
2023-02-11T06:57:30.576Z,84.62
2023-02-11T06:58:32.396Z,83.40
2023-02-11T06:59:34.031Z,80.46
2023-02-11T07:00:36.748Z,82.43
2023-02-11T07:01:38.390Z,81.16
2023-02-11T07:02:40.057Z,79.85
2023-02-11T07:03:44.469Z,81.52
2023-02-11T07:04:46.351Z,83.48
2023-02-11T07:05:48.017Z,79.50
2023-02-11T07:06:49.943Z,80.36
2023-02-11T07:07:51.682Z,80.67
2023-02-11T07:08:54.939Z,81.88
2023-02-11T07:09:56.569Z,79.41
2023-02-11T07:10:58.250Z,82.13
2023-02-11T07:12:00.016Z,79.85
2023-02-11T07:13:02.064Z,79.24
2023-02-11T07:14:08.418Z,80.86
2023-02-11T07:15:10.229Z,79.04
2023-02-11T07:16:14.850Z,78.30
2023-02-11T07:17:16.685Z,78.86
2023-02-11T07:18:18.479Z,80.83
2023-02-11T07:19:20.248Z,79.11
2023-02-11T07:20:21.862Z,81.83
2023-02-11T07:21:24.428Z,79.48
2023-02-11T07:22:26.051Z,81.04
2023-02-11T07:23:28.660Z,78.30
2023-02-11T07:24:30.278Z,80.48
2023-02-11T07:25:31.952Z,79.50
2023-02-11T07:26:33.701Z,77.72
2023-02-11T07:27:35.404Z,78.95
2023-02-11T07:28:38.665Z,79.72
2023-02-11T07:29:42.152Z,80.62
2023-02-11T07:30:43.889Z,79.99
2023-02-11T07:31:45.727Z,81.57
2023-02-11T07:32:48.116Z,78.76
2023-02-11T07:33:50.293Z,78.88
2023-02-11T07:34:52.135Z,78.45
2023-02-11T07:35:54.001Z,77.70
2023-02-11T07:36:55.780Z,78.92
2023-02-11T07:37:57.394Z,80.12
2023-02-11T07:39:00.104Z,77.74
2023-02-11T07:40:01.617Z,77.86
2023-02-11T07:41:09.336Z,77.68
2023-02-11T07:42:11.143Z,78.00
2023-02-11T07:43:14.014Z,76.91
2023-02-11T07:44:16.426Z,77.90
2023-02-11T07:45:18.461Z,77.66
2023-02-11T07:46:22.902Z,75.56
2023-02-11T07:47:24.683Z,77.13
2023-02-11T07:48:26.364Z,78.13
2023-02-11T07:49:29.000Z,76.17
2023-02-11T07:50:30.689Z,76.39
2023-02-11T07:51:32.457Z,77.08
2023-02-11T07:52:34.152Z,74.83
2023-02-11T07:53:36.191Z,74.33
2023-02-11T07:54:37.981Z,74.49
2023-02-11T07:55:39.636Z,74.45
2023-02-11T07:56:41.362Z,74.56
2023-02-11T07:57:43.129Z,72.84
2023-02-11T07:58:45.449Z,74.38
2023-02-11T07:59:47.340Z,73.07
2023-02-11T08:00:49.101Z,73.16
2023-02-11T08:01:51.566Z,73.27
2023-02-11T08:02:53.318Z,71.91
2023-02-11T08:03:57.600Z,68.12
2023-02-11T08:04:59.215Z,65.29
2023-02-11T08:06:08.762Z,63.42
2023-02-11T08:07:10.420Z,63.26
2023-02-11T08:08:12.081Z,64.22
2023-02-11T08:09:16.677Z,67.84
2023-02-11T08:10:18.337Z,68.39
2023-02-11T08:11:24.715Z,71.15
2023-02-11T08:12:26.310Z,71.88
2023-02-11T08:13:28.186Z,72.79
2023-02-11T08:14:29.775Z,72.40
2023-02-11T08:15:31.426Z,71.89
2023-02-11T08:16:34.968Z,71.63
2023-02-11T08:17:37.062Z,72.06
2023-02-11T08:18:38.699Z,72.29
2023-02-11T08:19:40.340Z,73.02
2023-02-11T08:20:42.189Z,73.53
2023-02-11T08:21:44.518Z,73.19
2023-02-11T08:22:46.166Z,73.41
2023-02-11T08:23:47.839Z,73.99
2023-02-11T08:24:52.244Z,73.63
2023-02-11T08:25:54.211Z,73.88
2023-02-11T08:26:55.864Z,74.58
2023-02-11T08:27:58.194Z,75.89
2023-02-11T08:28:59.837Z,73.49
2023-02-11T08:30:01.923Z,73.47
2023-02-11T08:31:12.504Z,73.54
2023-02-11T08:32:14.229Z,73.06
2023-02-11T08:33:16.037Z,72.95
2023-02-11T08:34:20.652Z,72.99
2023-02-11T08:35:22.377Z,73.41
2023-02-11T08:36:29.112Z,72.02
2023-02-11T08:37:33.008Z,72.62
2023-02-11T08:38:34.758Z,71.39
2023-02-11T08:39:36.345Z,71.77
2023-02-11T08:40:38.045Z,72.37
2023-02-11T08:41:39.748Z,71.33
2023-02-11T08:42:41.434Z,71.53
2023-02-11T08:43:44.176Z,71.10
2023-02-11T08:44:45.844Z,71.16
2023-02-11T08:45:47.606Z,70.61
2023-02-11T08:46:49.964Z,70.97
2023-02-11T08:47:51.641Z,70.93
2023-02-11T08:48:53.577Z,70.75
2023-02-11T08:49:55.229Z,72.20
2023-02-11T08:50:57.294Z,71.31
2023-02-11T08:52:03.742Z,71.30
2023-02-11T08:53:05.389Z,69.82
2023-02-11T08:54:09.573Z,68.41
2023-02-11T08:55:11.574Z,68.18
2023-02-11T08:56:14.155Z,68.58
2023-02-11T08:57:15.742Z,67.47
2023-02-11T08:58:19.206Z,67.51
2023-02-11T08:59:20.937Z,68.28
2023-02-11T09:00:23.218Z,71.06
2023-02-11T09:01:27.262Z,69.21
2023-02-11T09:02:29.948Z,69.77
2023-02-11T09:03:31.642Z,67.62
2023-02-11T09:04:33.344Z,67.43
2023-02-11T09:05:34.997Z,65.38
2023-02-11T09:06:36.782Z,66.93
2023-02-11T09:07:38.449Z,66.06
2023-02-11T09:08:45.329Z,62.95
2023-02-11T09:09:48.149Z,60.59
2023-02-11T09:10:50.164Z,59.65
2023-02-11T09:11:51.964Z,58.07
2023-02-11T09:12:53.578Z,60.18
2023-02-11T09:13:55.244Z,61.96
2023-02-11T09:14:56.883Z,62.58
2023-02-11T09:15:59.743Z,64.49
2023-02-11T09:17:01.864Z,65.59
2023-02-11T09:18:04.337Z,68.45
2023-02-11T09:19:06.022Z,68.79
2023-02-11T09:20:10.627Z,65.77
2023-02-11T09:21:13.184Z,65.11
2023-02-11T09:22:14.869Z,66.96
2023-02-11T09:23:18.590Z,65.13
2023-02-11T09:24:20.513Z,64.89
2023-02-11T09:25:22.146Z,65.40
2023-02-11T09:26:31.969Z,65.72
2023-02-11T09:27:33.614Z,66.55
2023-02-11T09:28:35.637Z,66.30
2023-02-11T09:29:37.376Z,66.51
2023-02-11T09:30:39.347Z,67.08
2023-02-11T09:31:41.321Z,67.85
2023-02-11T09:32:42.978Z,67.68
2023-02-11T09:33:49.299Z,67.59
2023-02-11T09:34:50.951Z,67.46
2023-02-11T09:35:52.562Z,67.27
2023-02-11T09:36:54.288Z,67.25
2023-02-11T09:37:56.043Z,67.12
2023-02-11T09:38:59.800Z,67.28
2023-02-11T09:40:01.412Z,67.98
2023-02-11T09:41:07.575Z,68.26
2023-02-11T09:42:39.329Z,67.09
2023-02-11T09:43:46.611Z,65.80
2023-02-11T09:44:48.503Z,66.13
2023-02-11T09:45:50.956Z,65.63
2023-02-11T09:47:05.415Z,66.03
2023-02-11T09:48:13.657Z,65.06
2023-02-11T09:49:19.664Z,65.15
2023-02-11T09:50:34.190Z,64.93
2023-02-11T09:51:48.531Z,64.21
2023-02-11T09:52:55.707Z,63.75
2023-02-11T09:54:03.814Z,63.09
2023-02-11T09:55:22.907Z,62.05
2023-02-11T09:56:25.069Z,62.48
2023-02-11T09:57:31.164Z,61.06
2023-02-11T09:58:35.676Z,63.05
2023-02-11T09:59:37.356Z,62.20
2023-02-11T10:00:49.444Z,61.45
2023-02-11T10:01:59.292Z,62.47
2023-02-11T10:03:09.928Z,62.42
2023-02-11T10:04:42.993Z,62.91
2023-02-11T10:05:51.404Z,62.47
2023-02-11T10:06:58.068Z,61.13
2023-02-11T10:08:10.009Z,60.12
2023-02-11T10:09:32.025Z,58.88
2023-02-11T10:10:53.169Z,56.02
2023-02-11T10:12:16.827Z,57.21
2023-02-11T10:13:24.362Z,58.16
2023-02-11T10:14:56.275Z,60.27
2023-02-11T10:15:57.959Z,59.72
2023-02-11T10:17:17.277Z,60.53
2023-02-11T10:18:59.603Z,61.48
2023-02-11T10:20:07.413Z,61.90
2023-02-11T10:21:30.319Z,62.68
2023-02-11T10:22:36.281Z,62.12
2023-02-11T10:23:40.127Z,62.62
2023-02-11T10:24:42.636Z,62.33
2023-02-11T10:25:47.067Z,62.20
2023-02-11T10:26:49.251Z,61.83
2023-02-11T10:27:51.965Z,62.96
2023-02-11T10:28:55.577Z,62.11
2023-02-11T10:30:20.525Z,61.34
2023-02-11T10:31:29.149Z,61.99
2023-02-11T10:32:42.848Z,60.64
2023-02-11T10:34:01.518Z,60.82
2023-02-11T10:35:09.281Z,60.85
2023-02-11T10:36:15.301Z,60.88
2023-02-11T10:37:17.046Z,60.86
2023-02-11T10:38:18.748Z,60.96
2023-02-11T10:39:25.983Z,61.24
2023-02-11T10:40:30.423Z,60.56
2023-02-11T10:41:38.108Z,60.14
2023-02-11T10:42:45.734Z,60.12
2023-02-11T10:43:47.312Z,60.60
2023-02-11T10:45:00.631Z,59.91
2023-02-11T10:46:03.280Z,60.72
2023-02-11T10:47:30.005Z,59.52
2023-02-11T10:48:51.769Z,59.38
2023-02-11T10:49:53.465Z,51.15
2023-02-11T10:51:14.652Z,50.83
2023-02-11T10:52:27.880Z,46.86
2023-02-11T10:53:29.465Z,46.23
2023-02-11T10:54:31.111Z,45.20
2023-02-11T10:55:33.046Z,43.60
2023-02-11T10:56:36.539Z,41.97
2023-02-11T10:57:44.594Z,42.52
2023-02-11T10:58:55.105Z,45.27
2023-02-11T11:00:05.738Z,47.49
2023-02-11T11:01:23.215Z,49.27
2023-02-11T11:02:32.247Z,50.09
2023-02-11T11:03:39.094Z,51.04
2023-02-11T11:04:42.954Z,51.56
2023-02-11T11:05:50.004Z,51.54
2023-02-11T11:06:51.635Z,51.73
2023-02-11T11:07:55.424Z,52.75
2023-02-11T11:08:57.935Z,53.29
2023-02-11T11:10:08.576Z,52.23
2023-02-11T11:11:13.497Z,49.65
2023-02-11T11:12:30.302Z,45.72
2023-02-11T11:13:34.256Z,46.70
2023-02-11T11:14:35.855Z,46.73
2023-02-11T11:15:37.480Z,48.37
2023-02-11T11:16:39.456Z,48.16
2023-02-11T11:17:41.040Z,48.00
2023-02-11T11:18:51.238Z,46.93
2023-02-11T11:19:53.153Z,48.37
2023-02-11T11:20:58.634Z,48.22
2023-02-11T11:22:01.126Z,48.58
2023-02-11T11:23:09.019Z,47.02
2023-02-11T11:24:18.667Z,47.70
2023-02-11T11:25:27.469Z,48.69
2023-02-11T11:26:43.972Z,51.07
2023-02-11T11:27:52.065Z,46.65
2023-02-11T11:29:00.733Z,44.63
2023-02-11T11:30:03.547Z,39.87
2023-02-11T11:31:05.383Z,38.14
2023-02-11T11:32:21.372Z,38.44
2023-02-11T11:33:26.462Z,40.36
2023-02-11T11:34:39.312Z,38.47
2023-02-11T11:35:41.047Z,37.45
2023-02-11T11:36:43.086Z,36.04
2023-02-11T11:37:45.805Z,37.98
2023-02-11T11:38:54.720Z,38.02
2023-02-11T11:40:00.411Z,37.59
2023-02-11T11:41:23.854Z,38.01
2023-02-11T11:42:29.134Z,42.01
2023-02-11T11:43:30.926Z,42.68
2023-02-11T11:44:36.932Z,44.05
2023-02-11T11:45:39.248Z,45.73
2023-02-11T11:46:44.318Z,46.63
2023-02-11T11:47:53.178Z,48.65
2023-02-11T11:49:00.516Z,49.37
2023-02-11T11:50:22.977Z,48.85
2023-02-11T11:51:25.345Z,50.17
2023-02-11T11:52:29.517Z,49.29
2023-02-11T11:53:31.072Z,48.95
2023-02-11T11:54:34.086Z,48.65
2023-02-11T11:55:46.602Z,48.06
2023-02-11T11:56:59.031Z,49.20
2023-02-11T11:58:01.123Z,50.45
2023-02-11T11:59:11.241Z,49.41
2023-02-11T12:00:48.970Z,49.27
2023-02-11T12:01:59.912Z,51.87
2023-02-11T12:03:21.273Z,48.69
2023-02-11T12:04:29.986Z,49.95
2023-02-11T12:05:31.739Z,48.33
2023-02-11T12:06:54.758Z,49.28
2023-02-11T12:08:14.761Z,50.10
2023-02-11T12:09:29.821Z,51.39
2023-02-11T12:10:57.348Z,49.68
2023-02-11T12:12:33.356Z,52.33
2023-02-11T12:13:43.260Z,50.51
2023-02-11T12:14:54.015Z,51.16
2023-02-11T12:16:04.703Z,50.38
2023-02-11T12:17:52.250Z,50.26
2023-02-11T12:19:12.601Z,51.01
2023-02-11T12:20:29.625Z,50.36
2023-02-11T12:21:49.087Z,49.12
2023-02-11T12:22:54.337Z,49.76
2023-02-11T12:24:24.081Z,48.36
2023-02-11T12:25:52.320Z,50.07
2023-02-11T12:26:58.256Z,49.58
2023-02-11T12:28:10.928Z,51.02
2023-02-11T12:29:33.445Z,49.75
2023-02-11T12:30:43.981Z,49.50
2023-02-11T12:32:05.032Z,49.47
2023-02-11T12:33:25.453Z,48.89
2023-02-11T12:35:08.531Z,49.15
2023-02-11T12:36:12.977Z,50.37
2023-02-11T12:37:47.464Z,49.41
2023-02-11T12:39:11.882Z,49.87
2023-02-11T12:40:16.691Z,51.87
2023-02-11T12:42:08.070Z,50.22
2023-02-11T12:43:18.431Z,50.76
2023-02-11T12:44:29.657Z,50.39
2023-02-11T12:45:55.777Z,50.97
2023-02-11T12:47:04.797Z,51.78
2023-02-11T12:48:18.372Z,51.29
2023-02-11T12:49:38.725Z,51.53
2023-02-11T12:50:46.369Z,52.61
2023-02-11T12:52:08.280Z,52.80
2023-02-11T12:53:31.831Z,52.42
2023-02-11T12:54:39.009Z,52.11
2023-02-11T12:55:45.300Z,53.01
2023-02-11T12:57:11.207Z,52.06
2023-02-11T12:58:17.172Z,52.57
2023-02-11T12:59:43.511Z,52.49
2023-02-11T13:00:55.584Z,52.94
2023-02-11T13:01:58.060Z,54.06
2023-02-11T13:03:07.371Z,53.90
2023-02-11T13:04:19.802Z,53.00
2023-02-11T13:05:28.386Z,53.14
2023-02-11T13:06:35.681Z,52.77
2023-02-11T13:07:41.960Z,53.34
2023-02-11T13:08:52.468Z,52.65
2023-02-11T13:10:05.539Z,53.05
2023-02-11T13:11:14.278Z,54.33
2023-02-11T13:12:35.534Z,53.07
2023-02-11T13:13:47.241Z,55.31
2023-02-11T13:14:50.306Z,54.72
2023-02-11T13:15:56.580Z,52.21
2023-02-11T13:16:58.813Z,53.06
2023-02-11T13:18:01.097Z,52.26
2023-02-11T13:19:26.694Z,54.72
2023-02-11T13:20:41.601Z,53.56
2023-02-11T13:21:53.164Z,52.66
2023-02-11T13:23:10.327Z,51.96
2023-02-11T13:24:30.679Z,51.84
2023-02-11T13:25:39.093Z,52.30
2023-02-11T13:26:42.999Z,53.91
2023-02-11T13:27:58.927Z,53.56
2023-02-11T13:29:30.007Z,51.98
2023-02-11T13:30:34.604Z,51.98
2023-02-11T13:31:36.686Z,51.06
2023-02-11T13:33:01.651Z,51.37
2023-02-11T13:34:03.967Z,51.16
2023-02-11T13:35:29.735Z,51.89
2023-02-11T13:36:33.299Z,53.00
2023-02-11T13:37:37.746Z,55.45
2023-02-11T13:38:39.498Z,55.79
2023-02-11T13:39:41.131Z,52.82
2023-02-11T13:40:43.265Z,52.66
2023-02-11T13:41:51.500Z,53.02
2023-02-11T13:42:56.636Z,52.58
2023-02-11T13:44:10.218Z,52.37
2023-02-11T13:45:29.324Z,52.23
2023-02-11T13:47:01.292Z,52.79
2023-02-11T13:48:05.829Z,52.54
2023-02-11T13:49:19.229Z,51.85
2023-02-11T13:50:23.829Z,52.71
2023-02-11T13:51:43.260Z,53.20
2023-02-11T13:52:45.284Z,53.83
2023-02-11T13:53:56.961Z,53.25
2023-02-11T13:55:06.228Z,51.30
2023-02-11T13:56:13.137Z,52.26
2023-02-11T13:57:20.371Z,51.75
2023-02-11T13:58:28.003Z,53.06
2023-02-11T13:59:32.984Z,52.42
2023-02-11T14:00:34.651Z,52.19
2023-02-11T14:01:39.118Z,52.97
2023-02-11T14:02:59.206Z,53.11
2023-02-11T14:04:41.333Z,52.41
2023-02-11T14:06:27.520Z,53.49
2023-02-11T14:07:52.515Z,54.02
2023-02-11T14:09:09.425Z,53.60
2023-02-11T14:10:36.210Z,53.32
2023-02-11T14:11:42.760Z,53.99
2023-02-11T14:13:22.455Z,54.74
2023-02-11T14:14:25.153Z,54.60
2023-02-11T14:15:27.522Z,54.24
2023-02-11T14:16:38.076Z,55.15